Time;durP1;ratioP1;P1;durP2;ratioP2;P2;SDS_P1;SDS_P2;PMS_P1;PMS_P2;Temp;Humidity;BMP_temperature;BMP_pressure;BME280_temperature;BME280_humidity;BME280_pressure;Samples;Min_cycle;Max_cycle;Signal;HPM_P1;HPM_P2
2022/08/15 00:02:00;;;;;;;;;;;23.80;99.90;;;;;;4996588;28;20474;-89
2022/08/15 00:04:27;;;;;;;8.88;7.95;;;23.80;99.90;;;;;;5012629;28;19917;-89
2022/08/15 00:06:53;;;;;;;9.52;8.63;;;23.80;99.90;;;;;;5012642;28;20084;-89
2022/08/15 00:09:20;;;;;;;;;;;23.80;99.90;;;;;;5024580;28;20076;-88
2022/08/15 00:11:52;;;;;;;10.77;8.20;;;23.70;99.90;;;;;;5031933;28;19924;-89
2022/08/15 00:14:25;;;;;;;10.00;7.90;;;23.70;99.90;;;;;;5015626;28;20041;-89
2022/08/15 00:16:51;;;;;;;8.70;7.82;;;23.70;99.90;;;;;;5008118;28;20485;-89
2022/08/15 00:19:22;;;;;;;;;;;23.70;99.90;;;;;;5012468;28;20038;-88
2022/08/15 00:21:54;;;;;;;9.85;8.80;;;23.70;99.90;;;;;;4995871;28;19917;-88
2022/08/15 00:24:25;;;;;;;10.23;7.82;;;23.60;99.90;;;;;;5012187;28;20041;-88
2022/08/15 00:26:53;;;;;;;10.30;7.97;;;23.60;99.90;;;;;;5011939;28;20049;-89
2022/08/15 00:29:21;;;;;;;9.65;8.00;;;23.50;99.90;;;;;;4995812;28;20046;-88
2022/08/15 00:31:48;;;;;;;8.32;7.50;;;23.40;99.90;;;;;;5012151;28;20042;-89
2022/08/15 00:34:16;;;;;;;8.60;7.65;;;23.40;99.90;;;;;;5011734;28;20045;-89
2022/08/15 00:36:43;;;;;;;8.48;7.68;;;23.40;99.90;;;;;;5015192;28;20038;-89
2022/08/15 00:39:09;;;;;;;9.65;7.95;;;23.50;99.90;;;;;;4999778;28;20046;-89
2022/08/15 00:41:41;;;;;;;;;;;23.40;99.90;;;;;;5000311;28;20033;-89
2022/08/15 00:44:26;;;;;;;10.15;8.18;;;23.50;99.90;;;;;;5000275;28;19964;-89
2022/08/15 00:46:55;;;;;;;8.98;7.65;;;23.50;99.90;;;;;;4999733;28;20061;-89
2022/08/15 00:49:23;;;;;;;11.93;8.00;;;23.40;99.90;;;;;;5015640;28;20513;-89
2022/08/15 00:52:04;;;;;;;9.90;8.32;;;23.40;99.90;;;;;;5015630;28;20062;-89
2022/08/15 00:54:59;;;;;;;10.10;8.48;;;23.30;99.90;;;;;;5021571;28;20072;-88
2022/08/15 00:57:32;;;;;;;8.90;8.07;;;23.20;99.90;;;;;;5016001;28;20045;-88
2022/08/15 01:00:04;;;;;;;9.15;8.15;;;23.20;99.90;;;;;;4999302;28;20038;-89
2022/08/15 01:02:33;;;;;;;9.50;8.50;;;23.10;99.90;;;;;;5015693;28;20472;-88
2022/08/15 01:04:59;;;;;;;11.15;9.20;;;23.00;99.90;;;;;;5015915;28;20116;-89
2022/08/15 01:07:26;;;;;;;11.48;8.45;;;23.00;99.90;;;;;;5000251;28;20501;-88
2022/08/15 01:09:53;;;;;;;10.18;8.70;;;22.90;99.90;;;;;;5016319;28;20045;-88
2022/08/15 01:12:22;;;;;;;11.85;9.13;;;22.80;99.90;;;;;;5016417;28;20566;-88
2022/08/15 01:14:55;;;;;;;10.90;9.73;;;22.80;99.90;;;;;;5015863;28;20080;-89
2022/08/15 01:17:21;;;;;;;12.10;9.40;;;22.70;99.90;;;;;;5031744;28;20053;-88
2022/08/15 01:20:04;;;;;;;11.25;9.45;;;22.70;99.90;;;;;;5015781;28;20034;-89
2022/08/15 01:22:39;;;;;;;10.57;8.50;;;22.70;99.90;;;;;;4999584;28;20033;-89
2022/08/15 01:25:17;;;;;;;10.05;9.05;;;22.60;99.90;;;;;;5015725;28;20046;-88
2022/08/15 01:27:56;;;;;;;9.88;8.43;;;22.60;99.90;;;;;;4999487;28;20134;-89
2022/08/15 01:30:26;;;;;;;9.90;8.90;;;22.60;99.90;;;;;;5016292;28;20129;-89
2022/08/15 01:32:56;;;;;;;10.32;9.25;;;22.50;99.90;;;;;;4999544;28;20045;-89
2022/08/15 01:35:22;;;;;;;11.63;8.43;;;22.50;99.90;;;;;;4999046;28;20038;-89
2022/08/15 01:37:51;;;;;;;11.18;8.88;;;22.50;99.90;;;;;;5016727;28;20507;-89
2022/08/15 01:40:17;;;;;;;11.45;10.00;;;22.50;99.90;;;;;;4984134;28;20349;-89
2022/08/15 01:42:47;;;;;;;11.40;9.95;;;22.50;99.90;;;;;;5016149;28;20038;-89
2022/08/15 01:45:18;;;;;;;10.63;9.52;;;22.40;99.90;;;;;;5000223;28;20073;-89
2022/08/15 01:48:02;;;;;;;10.73;9.60;;;22.40;99.90;;;;;;5016237;28;20038;-89
2022/08/15 01:50:31;;;;;;;13.77;10.27;;;22.30;99.90;;;;;;5015910;28;20428;-89
2022/08/15 01:53:09;;;;;;;12.13;10.18;;;22.30;99.90;;;;;;5016096;28;20363;-89
2022/08/15 01:56:00;;;;;;;10.73;9.55;;;22.30;99.90;;;;;;5019515;28;20052;-89
2022/08/15 01:58:26;;;;;;;12.68;9.68;;;22.20;99.90;;;;;;5025418;28;20052;-89
2022/08/15 02:00:56;;;;;;;11.90;9.98;;;22.30;99.90;;;;;;5002580;28;20124;-89
2022/08/15 02:03:33;;;;;;;10.13;9.18;;;22.30;99.90;;;;;;5034665;28;20049;-88
2022/08/15 02:06:20;;;;;;;;;;;22.30;99.90;;;;;;5021904;28;20112;-89
2022/08/15 02:08:47;;;;;;;10.90;9.70;;;22.30;99.90;;;;;;4999099;28;20008;-88
2022/08/15 02:11:19;;;;;;;11.73;9.75;;;22.30;99.90;;;;;;4998001;28;20448;-89
2022/08/15 02:13:47;;;;;;;11.25;9.70;;;22.30;99.90;;;;;;5017710;28;20041;-88
2022/08/15 02:16:14;;;;;;;10.15;9.07;;;22.40;99.90;;;;;;5017303;28;20107;-89
2022/08/15 02:18:40;;;;;;;12.52;9.52;;;22.30;99.90;;;;;;5017318;28;20037;-89
2022/08/15 02:21:06;;;;;;;11.30;9.68;;;22.40;99.90;;;;;;5002288;28;20037;-88
2022/08/15 02:23:32;;;;;;;10.68;9.57;;;22.40;99.90;;;;;;4997612;28;20057;-88
2022/08/15 02:25:58;;;;;;;13.07;10.55;;;22.50;99.90;;;;;;5013778;28;20081;-89
2022/08/15 02:28:25;;;;;;;11.90;10.70;;;22.50;99.90;;;;;;4997806;28;20084;-89
2022/08/15 02:30:53;;;;;;;11.77;10.57;;;22.40;99.90;;;;;;5013663;28;20084;-89
2022/08/15 02:33:19;;;;;;;13.02;11.68;;;22.30;99.90;;;;;;5014072;28;20041;-88
2022/08/15 02:35:45;;;;;;;12.02;10.73;;;22.30;99.90;;;;;;5013756;28;20042;-89
2022/08/15 02:38:11;;;;;;;13.65;11.02;;;22.20;99.90;;;;;;5013694;28;20507;-89
2022/08/15 02:40:36;;;;;;;13.95;10.52;;;22.20;99.90;;;;;;4997507;28;20520;-88
2022/08/15 02:43:07;;;;;;;12.13;10.85;;;22.20;99.90;;;;;;4997373;28;20038;-88
2022/08/15 02:45:34;;;;;;;12.05;10.73;;;22.20;99.90;;;;;;5013693;28;20038;-89
2022/08/15 02:48:00;;;;;;;11.75;10.10;;;22.10;99.90;;;;;;4997564;28;20042;-89
2022/08/15 02:50:26;;;;;;;14.75;11.07;;;22.10;99.90;;;;;;4998077;28;20041;-88
2022/08/15 02:52:52;;;;;;;;;;;22.10;99.90;;;;;;5013729;28;20136;-88
2022/08/15 02:55:19;;;;;;;11.85;10.20;;;22.10;99.90;;;;;;5024467;28;20000;-89
2022/08/15 02:57:45;;;;;;;13.70;10.00;;;22.10;99.90;;;;;;5000467;28;20136;-88
2022/08/15 03:00:16;;;;;;;13.13;10.82;;;22.10;99.90;;;;;;5000507;28;20126;-89
2022/08/15 03:02:49;;;;;;;12.80;10.57;;;22.10;99.90;;;;;;5033044;28;20045;-81
2022/08/15 03:05:15;;;;;;;11.13;9.90;;;22.20;99.90;;;;;;5020638;28;20053;-81
2022/08/15 03:07:41;;;;;;;;;;;22.30;99.90;;;;;;4988055;28;20049;-88
2022/08/15 03:10:07;;;;;;;12.00;10.80;;;22.00;99.90;;;;;;5016730;28;19992;-89
2022/08/15 03:12:33;;;;;;;11.77;10.25;;;22.00;99.90;;;;;;5000244;28;20045;-89
2022/08/15 03:15:01;;;;;;;12.88;10.93;;;22.00;99.90;;;;;;5016284;28;20049;-88
2022/08/15 03:17:26;;;;;;;10.95;9.68;;;22.10;99.90;;;;;;5033086;28;20088;-88
2022/08/15 03:19:53;;;;;;;11.68;10.50;;;22.10;99.90;;;;;;4987010;28;20041;-88
2022/08/15 03:22:19;;;;;;;12.70;10.15;;;22.20;99.90;;;;;;5013029;28;20141;-88
2022/08/15 03:24:45;;;;;;;11.15;10.05;;;22.20;99.90;;;;;;4996850;28;20137;-89
2022/08/15 03:27:11;;;;;;;12.63;10.27;;;22.20;99.90;;;;;;4996632;28;20045;-89
2022/08/15 03:29:36;;;;;;;11.88;10.68;;;22.20;99.90;;;;;;4996541;28;20503;-88
2022/08/15 03:32:11;;;;;;;12.23;10.38;;;22.20;99.90;;;;;;4980351;28;20044;-88
2022/08/15 03:34:37;;;;;;;12.10;10.90;;;22.20;99.90;;;;;;5022790;28;20517;-88
2022/08/15 03:37:02;;;;;;;12.82;11.38;;;22.10;99.90;;;;;;5016035;28;20041;-89
2022/08/15 03:39:28;;;;;;;12.23;10.93;;;22.10;99.90;;;;;;4999749;28;20037;-89
2022/08/15 03:41:54;;;;;;;11.90;10.50;;;22.10;99.90;;;;;;4999668;28;20037;-89
2022/08/15 03:44:20;;;;;;;13.40;10.35;;;22.00;99.90;;;;;;5016310;28;20045;-89
2022/08/15 03:46:45;;;;;;;11.88;10.68;;;22.00;99.90;;;;;;5000232;28;20400;-89
2022/08/15 03:49:13;;;;;;;13.07;11.05;;;22.00;99.90;;;;;;4999524;28;20056;-88
2022/08/15 03:51:40;;;;;;;13.70;11.20;;;21.90;99.90;;;;;;5000112;28;20061;-88
2022/08/15 03:54:06;;;;;;;12.65;10.40;;;22.00;99.90;;;;;;5027046;28;20042;-88
2022/08/15 03:56:33;;;;;;;11.85;10.60;;;21.90;99.90;;;;;;5025350;28;20056;-88
2022/08/15 03:59:00;;;;;;;11.80;10.60;;;22.00;99.90;;;;;;5032261;28;20037;-89
2022/08/15 04:01:29;;;;;;;12.60;11.27;;;22.00;99.90;;;;;;5008160;28;20037;-88
2022/08/15 04:03:55;;;;;;;13.13;11.43;;;22.00;99.90;;;;;;5000764;28;20042;-88
2022/08/15 04:06:22;;;;;;;;;;;22.00;99.90;;;;;;5017287;28;20037;-82
2022/08/15 04:08:50;;;;;;;13.13;11.82;;;22.00;99.90;;;;;;5018718;28;19980;-82
2022/08/15 04:11:17;;;;;;;12.80;11.50;;;21.90;99.90;;;;;;5004736;28;20051;-82
2022/08/15 04:13:44;;;;;;;14.13;12.10;;;21.90;99.90;;;;;;5000704;28;20034;-81
2022/08/15 04:16:10;;;;;;;13.25;11.90;;;21.80;99.90;;;;;;5018742;28;20041;-82
2022/08/15 04:18:37;;;;;;;15.43;12.20;;;21.80;99.90;;;;;;5018144;28;20033;-82
2022/08/15 04:21:06;;;;;;;14.45;12.07;;;21.70;99.90;;;;;;5006804;28;20482;-84
2022/08/15 04:23:33;;;;;;;14.65;12.45;;;21.60;99.90;;;;;;5023588;28;20049;-84
2022/08/15 04:25:58;;;;;;;;;;;21.60;99.90;;;;;;5018156;28;20034;-83
2022/08/15 04:28:26;;;;;;;16.70;12.38;;;21.60;99.90;;;;;;5025431;28;20326;-82
2022/08/15 04:30:52;;;;;;;14.00;12.55;;;21.60;99.90;;;;;;5027109;28;20535;-83
2022/08/15 04:33:22;;;;;;;13.18;11.77;;;21.60;99.90;;;;;;5007872;28;20061;-83
2022/08/15 04:35:55;;;;;;;13.65;12.23;;;21.50;99.90;;;;;;5028564;28;20358;-83
2022/08/15 04:38:21;;;;;;;13.82;12.35;;;21.60;99.90;;;;;;5019639;28;20137;-83
2022/08/15 04:40:48;;;;;;;13.77;12.38;;;21.50;99.90;;;;;;5002134;28;20033;-82
2022/08/15 04:43:15;;;;;;;12.70;11.40;;;21.60;99.90;;;;;;5013562;28;20049;-84
2022/08/15 04:45:42;;;;;;;12.10;11.00;;;21.60;99.90;;;;;;5007594;28;20038;-84
2022/08/15 04:48:09;;;;;;;13.10;10.50;;;21.60;99.90;;;;;;5012923;28;20513;-87
2022/08/15 04:50:38;;;;;;;12.98;10.45;;;21.60;99.90;;;;;;4984497;28;20122;-84
2022/08/15 04:53:07;;;;;;;13.38;11.38;;;21.60;99.90;;;;;;5002197;28;20049;-85
2022/08/15 04:55:33;;;;;;;14.13;12.02;;;21.60;99.90;;;;;;5002135;28;20056;-85
2022/08/15 04:57:59;;;;;;;13.23;11.80;;;21.70;99.90;;;;;;4986631;28;20042;-85
2022/08/15 05:00:28;;;;;;;14.05;12.57;;;21.70;99.90;;;;;;4984765;28;20053;-85
2022/08/15 05:03:09;;;;;;;14.68;13.18;;;21.70;99.90;;;;;;5004340;28;20812;-85
2022/08/15 05:05:38;;;;;;;14.23;12.52;;;21.70;99.90;;;;;;5006828;28;20034;-85
2022/08/15 05:08:05;;;;;;;13.40;12.10;;;21.70;99.90;;;;;;5002285;28;20040;-85
2022/08/15 05:10:31;;;;;;;13.77;12.25;;;21.80;99.90;;;;;;4993792;28;20447;-85
2022/08/15 05:12:56;;;;;;;;;;;21.80;99.90;;;;;;5024663;28;20044;-85
2022/08/15 05:15:22;;;;;;;15.20;13.35;;;21.70;99.90;;;;;;5020720;28;19921;-85
2022/08/15 05:17:49;;;;;;;15.10;13.30;;;21.70;99.90;;;;;;5000854;28;20116;-85
2022/08/15 05:20:17;;;;;;;16.58;12.30;;;21.80;99.90;;;;;;5001486;28;20045;-85
2022/08/15 05:22:58;;;;;;;16.25;14.45;;;21.80;99.90;;;;;;5008493;28;20037;-85
2022/08/15 05:25:24;;;;;;;19.17;13.88;;;21.90;99.90;;;;;;5030843;28;20038;-85
2022/08/15 05:27:51;;;;;;;15.55;13.98;;;21.90;99.90;;;;;;4992975;28;20044;-85
2022/08/15 05:30:19;;;;;;;17.35;14.63;;;21.90;99.90;;;;;;4988702;28;20141;-84
2022/08/15 05:32:45;;;;;;;16.60;14.90;;;21.90;99.90;;;;;;5002993;28;20041;-85
2022/08/15 05:35:10;;;;;;;18.13;14.23;;;21.90;99.90;;;;;;5007813;28;20041;-85
2022/08/15 05:37:37;;;;;;;17.08;14.82;;;21.90;99.90;;;;;;5027253;28;20045;-85
2022/08/15 05:40:06;;;;;;;17.15;15.35;;;21.90;99.90;;;;;;4992832;28;20029;-85
2022/08/15 05:42:51;;;;;;;17.17;15.18;;;21.90;99.90;;;;;;5003574;28;20038;-85
2022/08/15 05:45:24;;;;;;;16.60;13.77;;;21.90;99.90;;;;;;5009440;28;20038;-85
2022/08/15 05:48:11;;;;;;;18.52;14.55;;;21.90;99.90;;;;;;5025790;28;20044;-86
2022/08/15 05:50:48;;;;;;;16.67;14.15;;;22.00;99.90;;;;;;5003390;28;20061;-85
2022/08/15 05:53:28;;;;;;;16.60;14.80;;;22.10;99.90;;;;;;5014032;28;20465;-85
2022/08/15 05:55:53;;;;;;;16.42;13.85;;;22.10;99.90;;;;;;5021420;28;20041;-85
2022/08/15 05:58:40;;;;;;;16.52;14.32;;;22.20;99.90;;;;;;5005595;28;20128;-85
2022/08/15 06:01:20;;;;;;;16.73;14.32;;;22.30;99.90;;;;;;5005004;28;20037;-85
2022/08/15 06:03:55;;;;;;;18.52;15.38;;;22.40;99.90;;;;;;5028150;28;20045;-85
2022/08/15 06:06:29;;;;;;;16.48;14.77;;;22.50;99.90;;;;;;5033084;28;20045;-85
2022/08/15 06:09:01;;;;;;;16.65;14.25;;;22.50;99.90;;;;;;5026057;28;20044;-85
2022/08/15 06:11:39;;;;;;;15.85;14.13;;;22.50;99.90;;;;;;5004431;28;20457;-85
2022/08/15 06:14:33;;;;;;;16.88;13.70;;;22.50;99.90;;;;;;5028606;28;20041;-85
2022/08/15 06:17:12;;;;;;;15.75;14.15;;;22.60;99.90;;;;;;5011176;28;20603;-85
2022/08/15 06:19:42;;;;;;;16.48;13.88;;;22.60;99.90;;;;;;5020284;28;20033;-85
2022/08/15 06:22:35;;;;;;;17.15;14.45;;;22.60;99.90;;;;;;5006192;28;20034;-85
2022/08/15 06:25:10;;;;;;;16.63;14.43;;;22.70;99.90;;;;;;5008815;28;20044;-85
2022/08/15 06:27:46;;;;;;;15.48;13.88;;;22.70;99.90;;;;;;5026886;28;20096;-85
2022/08/15 06:30:16;;;;;;;16.08;13.57;;;22.80;99.90;;;;;;5008500;28;20044;-85
2022/08/15 06:32:52;;;;;;;16.77;13.35;;;23.00;99.90;;;;;;5000912;28;20045;-85
2022/08/15 06:35:44;;;;;;;;;;;23.50;99.90;;;;;;5010487;28;20061;-85
2022/08/15 06:38:39;;;;;;;14.63;13.07;;;24.10;99.90;;;;;;4999185;28;19924;-86
2022/08/15 06:41:29;;;;;;;14.85;12.73;;;24.80;99.90;;;;;;5046039;28;20045;-85
2022/08/15 06:43:56;;;;;;;14.15;12.40;;;25.10;99.90;;;;;;5032267;28;20510;-85
2022/08/15 06:46:25;;;;;;;13.77;12.10;;;25.40;99.90;;;;;;5008825;28;20042;-86
2022/08/15 06:48:51;;;;;;;13.05;11.65;;;25.80;99.90;;;;;;4988311;28;20435;-85
2022/08/15 06:51:17;;;;;;;;;;;26.00;99.90;;;;;;5003432;28;20053;-85
2022/08/15 06:53:49;;;;;;;12.00;10.80;;;25.90;99.90;;;;;;5013997;28;20000;-86
2022/08/15 06:56:33;;;;;;;15.10;11.65;;;25.80;99.90;;;;;;5005433;28;20041;-86
2022/08/15 06:59:02;;;;;;;15.02;11.10;;;26.10;99.90;;;;;;5021957;28;20045;-85
2022/08/15 07:01:39;;;;;;;13.38;11.00;;;26.30;99.90;;;;;;5012653;28;20088;-85
2022/08/15 07:04:31;;;;;;;13.77;10.73;;;26.20;99.90;;;;;;5010290;28;20120;-85
2022/08/15 07:07:31;;;;;;;13.77;11.43;;;26.00;99.90;;;;;;5006246;28;20038;-85
2022/08/15 07:10:18;;;;;;;12.85;11.40;;;25.60;99.90;;;;;;5024202;28;20326;-85
2022/08/15 07:13:04;;;;;;;14.00;11.60;;;25.40;99.90;;;;;;5008655;28;20428;-85
2022/08/15 07:15:37;;;;;;;13.13;11.40;;;25.10;99.90;;;;;;5029416;28;20091;-85
2022/08/15 07:18:36;;;;;;;12.82;11.48;;;24.80;99.90;;;;;;5015108;28;20042;-85
2022/08/15 07:21:12;;;;;;;13.70;11.70;;;24.70;99.90;;;;;;5010454;28;20030;-85
2022/08/15 07:24:06;;;;;;;12.43;11.13;;;24.80;99.90;;;;;;5015566;28;20088;-85
2022/08/15 07:26:50;;;;;;;13.52;11.48;;;24.90;99.90;;;;;;5009218;28;20073;-85
2022/08/15 07:29:28;;;;;;;12.80;11.50;;;24.90;99.90;;;;;;4998601;28;20504;-85
2022/08/15 07:32:07;;;;;;;14.13;11.95;;;24.90;99.90;;;;;;5031957;28;20037;-85
2022/08/15 07:34:33;;;;;;;14.18;11.60;;;24.80;99.90;;;;;;5021602;28;20033;-85
2022/08/15 07:37:03;;;;;;;;;;;24.70;99.90;;;;;;4989210;28;20041;-85
2022/08/15 07:39:35;;;;;;;14.85;11.25;;;24.70;99.90;;;;;;5000590;28;19940;-85
2022/08/15 07:42:20;;;;;;;15.77;11.27;;;24.70;99.90;;;;;;5002703;28;20069;-85
2022/08/15 07:45:08;;;;;;;12.38;11.05;;;24.70;99.90;;;;;;5004865;28;20507;-85
2022/08/15 07:47:34;;;;;;;12.88;11.30;;;24.70;99.90;;;;;;5004333;28;20049;-85
2022/08/15 07:50:00;;;;;;;;;;;24.70;99.90;;;;;;5005746;28;20483;-85
2022/08/15 07:52:26;;;;;;;12.15;10.85;;;24.60;99.90;;;;;;5004628;28;19936;-85
2022/08/15 07:54:56;;;;;;;;;;;24.60;99.90;;;;;;4983655;28;20041;-85
2022/08/15 07:57:34;;;;;;;11.25;10.13;;;24.60;99.90;;;;;;5009018;28;19917;-85
2022/08/15 08:00:13;;;;;;;11.35;10.20;;;24.60;99.90;;;;;;5002841;28;20115;-85
2022/08/15 08:02:51;;;;;;;12.52;10.60;;;24.70;99.90;;;;;;5025519;28;20033;-85
2022/08/15 08:05:18;;;;;;;11.77;10.02;;;24.70;99.90;;;;;;5009360;28;20073;-85
2022/08/15 08:07:46;;;;;;;11.88;10.40;;;24.90;99.90;;;;;;5002828;28;20068;-85
2022/08/15 08:10:38;;;;;;;12.50;10.38;;;25.50;99.90;;;;;;4995911;28;20080;-84
2022/08/15 08:13:28;;;;;;;11.57;9.82;;;26.20;99.90;;;;;;5002599;28;20196;-85
2022/08/15 08:16:24;;;;;;;9.80;8.82;;;26.90;99.90;;;;;;5002655;28;20158;-85
2022/08/15 08:19:18;;;;;;;14.80;8.63;;;27.60;99.90;;;;;;5022958;28;20037;-85
2022/08/15 08:21:47;;;;;;;12.10;8.68;;;28.30;98.60;;;;;;5030179;28;20115;-86
2022/08/15 08:24:27;;;;;;;10.27;8.50;;;28.70;98.00;;;;;;5004828;28;20703;-85
2022/08/15 08:27:23;;;;;;;8.70;7.78;;;28.70;97.70;;;;;;5004777;28;20519;-85
2022/08/15 08:30:10;;;;;;;9.37;7.80;;;28.50;97.20;;;;;;4993441;28;20057;-85
2022/08/15 08:32:39;;;;;;;;;;;28.30;97.70;;;;;;5014236;28;20737;-85
2022/08/15 08:35:28;;;;;;;8.90;7.13;;;28.20;97.70;;;;;;5005700;28;19922;-85
2022/08/15 08:38:16;;;;;;;6.65;6.05;;;28.10;97.60;;;;;;5009024;28;20045;-85
2022/08/15 08:44:02;;;;;;;6.82;6.10;;;28.20;97.00;;;;;;5017908;28;20124;-85
2022/08/15 08:46:38;;;;;;;6.32;5.55;;;28.60;96.50;;;;;;5015491;28;20042;-85
2022/08/15 08:49:38;;;;;;;6.88;5.60;;;28.70;96.50;;;;;;5021357;28;20073;-85
2022/08/15 08:52:27;;;;;;;6.72;5.97;;;28.70;95.80;;;;;;5026375;28;20065;-85
2022/08/15 08:55:21;;;;;;;6.38;5.78;;;28.70;95.90;;;;;;5007175;28;20069;-86
2022/08/15 08:57:58;;;;;;;6.75;5.65;;;28.80;95.60;;;;;;5009092;28;20040;-85
2022/08/15 09:00:40;;;;;;;8.35;6.07;;;29.00;95.50;;;;;;5034164;28;20038;-85
2022/08/15 09:03:29;;;;;;;7.50;5.50;;;29.00;95.40;;;;;;5003597;28;20370;-85
2022/08/15 09:05:57;;;;;;;7.03;4.95;;;29.00;95.00;;;;;;5033823;28;20038;-85
2022/08/15 09:08:29;;;;;;;6.82;5.88;;;29.00;95.40;;;;;;5010760;28;20080;-85
2022/08/15 09:11:05;;;;;;;6.63;5.60;;;29.10;95.20;;;;;;5034305;28;20041;-85
2022/08/15 09:13:34;;;;;;;6.72;6.03;;;29.10;94.60;;;;;;5012287;28;20072;-84
2022/08/15 09:16:10;;;;;;;6.72;5.90;;;29.00;94.90;;;;;;4989105;28;20077;-85
2022/08/15 09:18:43;;;;;;;;;;;29.00;95.10;;;;;;5024672;28;20048;-85
2022/08/15 09:21:10;;;;;;;9.95;6.07;;;29.30;95.40;;;;;;5014902;28;19921;-85
2022/08/15 09:23:38;;;;;;;6.45;5.50;;;29.30;94.90;;;;;;5014718;28;20085;-85
2022/08/15 09:26:45;;;;;;;6.20;5.60;;;29.40;95.30;;;;;;5027135;28;20041;-85
2022/08/15 09:29:34;;;;;;;7.50;6.15;;;29.50;95.20;;;;;;5004911;28;20042;-85
2022/08/15 09:32:10;;;;;;;9.38;6.10;;;29.50;95.00;;;;;;5007038;28;20048;-85
2022/08/15 09:34:35;;;;;;;6.35;5.75;;;29.70;94.40;;;;;;5014523;28;20037;-85
2022/08/15 09:37:01;;;;;;;6.97;5.72;;;29.80;94.20;;;;;;5034080;28;20451;-85
2022/08/15 09:39:53;;;;;;;7.43;5.70;;;29.90;94.40;;;;;;5005832;28;20069;-85
2022/08/15 09:42:34;;;;;;;6.18;5.57;;;30.00;94.10;;;;;;5007342;28;20045;-85
2022/08/15 09:45:04;;;;;;;6.78;6.07;;;30.10;93.70;;;;;;5002643;28;20448;-86
2022/08/15 09:48:03;;;;;;;7.40;5.80;;;30.30;94.00;;;;;;5002516;28;20042;-86
2022/08/15 09:50:50;;;;;;;7.15;5.40;;;30.70;93.40;;;;;;5012312;28;20476;-85
2022/08/15 09:53:53;;;;;;;7.88;5.85;;;31.30;92.90;;;;;;5033378;28;20058;-85
2022/08/15 09:56:22;;;;;;;7.28;6.20;;;31.70;92.90;;;;;;4999845;28;20081;-85
2022/08/15 09:59:18;;;;;;;6.53;5.53;;;31.70;92.90;;;;;;5008855;28;20068;-85
2022/08/15 10:01:52;;;;;;;6.35;5.68;;;32.00;92.90;;;;;;4987006;28;20132;-85
2022/08/15 10:04:22;;;;;;;6.50;5.38;;;32.10;92.40;;;;;;5007912;28;20493;-85
2022/08/15 10:06:47;;;;;;;7.10;5.40;;;32.20;91.20;;;;;;5003172;28;20034;-85
2022/08/15 10:09:40;;;;;;;7.00;5.38;;;32.30;91.60;;;;;;5016811;28;20128;-85
2022/08/15 10:12:06;;;;;;;7.07;5.65;;;32.60;91.40;;;;;;5016036;28;20045;-85
2022/08/15 10:15:01;;;;;;;6.10;4.93;;;32.70;91.00;;;;;;5033347;28;20040;-85
2022/08/15 10:17:34;;;;;;;7.70;5.47;;;32.60;90.80;;;;;;4999920;28;20050;-85
2022/08/15 10:20:15;;;;;;;6.43;5.28;;;32.70;90.90;;;;;;5031020;28;20039;-85
2022/08/15 10:22:48;;;;;;;6.18;5.30;;;32.90;90.90;;;;;;5010985;28;20034;-85
2022/08/15 10:25:22;;;;;;;6.40;5.70;;;33.00;90.70;;;;;;5044571;28;20049;-85
2022/08/15 10:27:58;;;;;;;8.27;5.63;;;33.10;91.50;;;;;;5031008;28;20042;-85
2022/08/15 10:30:30;;;;;;;7.25;5.72;;;32.70;91.20;;;;;;5013931;28;20049;-85
2022/08/15 10:32:57;;;;;;;8.35;5.40;;;32.40;91.70;;;;;;5030640;28;20040;-85
2022/08/15 10:35:40;;;;;;;7.85;5.80;;;32.60;91.30;;;;;;5001503;28;20196;-85
2022/08/15 10:38:09;;;;;;;8.20;5.53;;;32.50;90.70;;;;;;5015441;28;20042;-85
2022/08/15 10:40:57;;;;;;;7.95;6.25;;;32.40;90.80;;;;;;4998819;28;20033;-85
2022/08/15 10:43:32;;;;;;;8.38;6.15;;;32.50;90.90;;;;;;5002556;28;20061;-85
2022/08/15 10:46:19;;;;;;;7.90;6.43;;;32.20;90.90;;;;;;5004588;28;20087;-85
2022/08/15 10:49:08;;;;;;;8.93;5.80;;;32.00;91.00;;;;;;5003900;28;20038;-85
2022/08/15 10:51:55;;;;;;;7.88;6.45;;;31.90;91.10;;;;;;5043319;28;20041;-84
2022/08/15 10:55:02;;;;;;;7.43;6.55;;;31.80;91.60;;;;;;5006005;28;20493;-85
2022/08/15 10:57:39;;;;;;;7.25;6.55;;;31.50;91.80;;;;;;5012113;28;20033;-85
2022/08/15 11:00:07;;;;;;;9.25;7.93;;;31.50;91.70;;;;;;5003764;28;20052;-85
2022/08/15 11:02:37;;;;;;;11.18;7.70;;;31.40;91.90;;;;;;5022023;28;20037;-85
2022/08/15 11:05:08;;;;;;;12.27;8.48;;;31.40;92.30;;;;;;5029387;28;20045;-85
2022/08/15 11:07:36;;;;;;;11.15;8.50;;;31.40;92.40;;;;;;5017436;28;20033;-84
2022/08/15 11:10:14;;;;;;;11.18;8.98;;;31.50;92.20;;;;;;5026525;28;20041;-84
2022/08/15 11:12:54;;;;;;;13.57;9.82;;;31.50;92.80;;;;;;5026633;28;20033;-85
2022/08/15 11:15:31;;;;;;;12.82;10.15;;;31.40;93.50;;;;;;5006738;28;20073;-85
2022/08/15 11:18:03;;;;;;;15.50;10.80;;;31.10;93.40;;;;;;5000575;28;20043;-85
2022/08/15 11:20:38;;;;;;;12.80;10.18;;;30.70;93.30;;;;;;5004666;28;20038;-85
2022/08/15 11:23:04;;;;;;;13.30;11.18;;;30.40;93.80;;;;;;5001040;28;20121;-85
2022/08/15 11:25:37;;;;;;;11.15;9.82;;;30.10;94.00;;;;;;4999522;28;20139;-85
2022/08/15 11:28:21;;;;;;;16.17;9.93;;;29.70;94.30;;;;;;5005691;28;20029;-85
2022/08/15 11:30:47;;;;;;;11.25;9.85;;;29.70;94.50;;;;;;5005495;28;20095;-85
2022/08/15 11:33:22;;;;;;;10.70;9.15;;;29.40;94.90;;;;;;4989647;28;20104;-85
2022/08/15 11:35:50;;;;;;;11.60;9.57;;;29.20;95.30;;;;;;5004690;28;20041;-85
2022/08/15 11:38:16;;;;;;;10.98;8.98;;;29.10;95.20;;;;;;5026712;28;20567;-84
2022/08/15 11:40:50;;;;;;;10.43;9.43;;;28.90;95.50;;;;;;4991588;28;20029;-85
2022/08/15 11:43:17;;;;;;;10.07;9.02;;;28.80;95.60;;;;;;5007648;28;20132;-85
2022/08/15 11:45:49;;;;;;;12.30;9.90;;;28.60;95.90;;;;;;5002999;28;20551;-85
2022/08/15 11:48:19;;;;;;;11.38;10.02;;;28.50;97.40;;;;;;5002886;28;20083;-85
2022/08/15 11:51:06;;;;;;;14.63;10.57;;;28.30;98.10;;;;;;5002374;28;20044;-85
2022/08/15 11:53:43;;;;;;;15.45;10.65;;;28.10;99.10;;;;;;5010911;28;20057;-86
2022/08/15 11:56:09;;;;;;;16.65;11.10;;;28.00;99.80;;;;;;5022455;28;20041;-85
2022/08/15 11:58:38;;;;;;;13.15;10.48;;;27.90;99.90;;;;;;5010210;28;20343;-85
2022/08/15 12:01:29;;;;;;;15.65;11.25;;;27.80;99.90;;;;;;5024664;28;20025;-84
2022/08/15 12:04:07;;;;;;;10.68;9.65;;;27.60;99.90;;;;;;5006690;28;20038;-85
2022/08/15 12:06:41;;;;;;;10.65;9.07;;;27.40;99.90;;;;;;5019247;28;20049;-84
2022/08/15 12:09:19;;;;;;;10.00;9.00;;;27.40;99.90;;;;;;5000968;28;20511;-85
2022/08/15 12:11:49;;;;;;;9.48;8.48;;;27.40;99.90;;;;;;5002391;28;20041;-84
2022/08/15 12:14:21;;;;;;;10.50;8.77;;;27.50;99.90;;;;;;5003468;28;20053;-84
2022/08/15 12:16:51;;;;;;;10.23;8.52;;;27.40;99.90;;;;;;5008898;28;20037;-85
2022/08/15 12:19:35;;;;;;;9.73;8.30;;;27.50;99.90;;;;;;5005775;28;20489;-84
2022/08/15 12:22:06;;;;;;;12.40;8.90;;;27.50;99.90;;;;;;5020658;28;20034;-85
2022/08/15 12:24:34;;;;;;;9.27;8.27;;;27.60;99.90;;;;;;5003620;28;20033;-85
2022/08/15 12:27:01;;;;;;;9.45;8.55;;;27.80;99.90;;;;;;5005047;28;20073;-85
2022/08/15 12:29:30;;;;;;;10.63;8.38;;;27.80;99.90;;;;;;5002498;28;20053;-85
2022/08/15 12:31:58;;;;;;;9.55;8.07;;;27.90;99.90;;;;;;5003101;28;20125;-85
2022/08/15 12:34:33;;;;;;;8.90;8.00;;;27.90;99.90;;;;;;5017337;28;20046;-85
2022/08/15 12:37:01;;;;;;;9.65;8.48;;;28.00;99.90;;;;;;5005685;28;20121;-85
2022/08/15 12:39:27;;;;;;;10.45;9.35;;;27.90;99.90;;;;;;5026370;28;20083;-85
2022/08/15 12:41:54;;;;;;;10.48;8.98;;;27.90;99.90;;;;;;5003160;28;20401;-85
2022/08/15 12:44:25;;;;;;;10.45;8.95;;;27.80;99.90;;;;;;5018084;28;20045;-85
2022/08/15 12:46:52;;;;;;;11.20;8.90;;;27.80;99.90;;;;;;5000943;28;20042;-85
2022/08/15 12:49:18;;;;;;;9.73;8.43;;;27.80;99.90;;;;;;5023126;28;20400;-86
2022/08/15 12:51:44;;;;;;;7.43;6.65;;;27.80;99.90;;;;;;5001127;28;20042;-85
2022/08/15 12:54:10;;;;;;;7.15;5.90;;;27.90;99.90;;;;;;5005491;28;20045;-85
2022/08/15 12:56:37;;;;;;;6.20;5.22;;;28.00;99.90;;;;;;4999729;28;20405;-86
2022/08/15 12:59:05;;;;;;;8.00;6.70;;;28.00;99.90;;;;;;5001718;28;20076;-85
2022/08/15 13:01:32;;;;;;;8.90;7.25;;;28.00;99.90;;;;;;5007646;28;20116;-85
2022/08/15 13:04:04;;;;;;;8.27;7.18;;;28.00;99.90;;;;;;4986272;28;20048;-86
2022/08/15 13:06:57;;;;;;;8.25;7.45;;;28.20;99.90;;;;;;5000460;28;20053;-85
2022/08/15 13:09:30;;;;;;;8.13;7.03;;;28.30;99.90;;;;;;5020591;28;20057;-86
2022/08/15 13:11:59;;;;;;;7.40;6.70;;;28.30;99.90;;;;;;4997359;28;20444;-86
2022/08/15 13:14:25;;;;;;;7.70;6.20;;;28.40;99.90;;;;;;5004128;28;20041;-85
2022/08/15 13:16:51;;;;;;;7.50;6.75;;;28.40;99.90;;;;;;5004780;28;20076;-85